Gorin, Russia
Current Conditions -  °F | °C
As of 8:30 PM on Saturday 22 Nov 2014 (Local Time) from UHHH Reporting Station
Overcast Overcast  
Wind Chill:   Ceiling: 2100
Heat Index: 21°   Visibility: 6mi
Dew Point: 16°   Wind: 18mph
Humidity: 80%   Direction: 250°WSW
Pressure: 30.09"   Gusts: 25mph
Location:  51.2°N, 136.67°E
Report Text: UHHH 221030Z 25008G11MPS 9999 OVC021 M06/M09 Q1019 NOSIG RMKQFE758/1011 23890540
Loading
Personal Weather Stations






























Interactive Weather Map New forecast layout! Learn more

10-Day Weather Forecast

Advertisements
Track Severe Weather on mobile